createdAt,value
2023-05-11T00:00:13.496Z,21.37
2023-05-11T00:02:45.740Z,21.33
2023-05-11T00:05:14.459Z,21.30
2023-05-11T00:07:42.799Z,21.28
2023-05-11T00:10:12.488Z,21.27
2023-05-11T00:12:40.791Z,21.26
2023-05-11T00:15:10.271Z,21.26
2023-05-11T00:17:38.647Z,21.25
2023-05-11T00:20:10.527Z,21.25
2023-05-11T00:22:39.264Z,21.24
2023-05-11T00:25:09.010Z,21.23
2023-05-11T00:27:37.384Z,21.22
2023-05-11T00:30:07.422Z,21.20
2023-05-11T00:32:35.761Z,21.20
2023-05-11T00:35:04.133Z,21.18
2023-05-11T00:37:33.819Z,21.14
2023-05-11T00:40:02.278Z,21.12
2023-05-11T00:42:30.555Z,21.11
2023-05-11T00:44:59.533Z,21.10
2023-05-11T00:47:28.250Z,21.10
2023-05-11T00:49:56.890Z,21.10
2023-05-11T00:52:25.771Z,21.09
2023-05-11T00:54:55.649Z,21.06
2023-05-11T00:57:24.039Z,21.05
2023-05-11T00:59:52.411Z,21.01
2023-05-11T01:02:20.821Z,21.00
2023-05-11T01:04:49.238Z,20.98
2023-05-11T01:07:23.958Z,20.94
2023-05-11T01:10:04.538Z,20.91
2023-05-11T01:12:48.171Z,20.88
2023-05-11T01:15:26.145Z,20.87
2023-05-11T01:18:02.463Z,20.85
2023-05-11T01:20:31.995Z,20.84
2023-05-11T01:23:43.984Z,20.78
2023-05-11T01:26:40.096Z,20.76
2023-05-11T01:30:00.416Z,20.73
2023-05-11T01:32:35.743Z,20.73
2023-05-11T01:35:12.249Z,20.72
2023-05-11T01:37:47.153Z,20.70
2023-05-11T01:40:19.919Z,20.69
2023-05-11T01:42:51.702Z,20.69
2023-05-11T01:45:21.744Z,20.69
2023-05-11T01:47:53.798Z,20.67
2023-05-11T01:50:26.791Z,20.66
2023-05-11T01:52:56.144Z,20.67
2023-05-11T01:55:26.966Z,20.65
2023-05-11T01:57:57.034Z,20.62
2023-05-11T02:00:26.181Z,20.60
2023-05-11T02:02:57.938Z,20.59
2023-05-11T02:05:28.397Z,20.59
2023-05-11T02:07:59.258Z,20.57
2023-05-11T02:10:28.376Z,20.56
2023-05-11T02:12:57.628Z,20.55
2023-05-11T02:15:27.671Z,20.52
2023-05-11T02:17:58.088Z,20.51
2023-05-11T02:20:27.759Z,20.50
2023-05-11T02:22:57.599Z,20.47
2023-05-11T02:25:26.710Z,20.45
2023-05-11T02:27:55.278Z,20.44
2023-05-11T02:30:25.100Z,20.41
2023-05-11T02:32:56.463Z,20.39
2023-05-11T02:35:31.448Z,20.34
2023-05-11T02:38:04.436Z,20.33
2023-05-11T02:40:40.708Z,20.28
2023-05-11T02:43:12.382Z,20.27
2023-05-11T02:45:45.517Z,20.25
2023-05-11T02:48:23.948Z,20.24
2023-05-11T02:50:56.081Z,20.24
2023-05-11T02:53:28.741Z,20.22
2023-05-11T02:55:58.202Z,20.22
2023-05-11T02:58:26.792Z,20.20
2023-05-11T03:00:56.453Z,20.17
2023-05-11T03:03:25.712Z,20.17
2023-05-11T03:05:55.547Z,20.14
2023-05-11T03:08:23.903Z,20.14
2023-05-11T03:10:54.326Z,20.11
2023-05-11T03:13:25.972Z,20.09
2023-05-11T03:15:54.812Z,20.06
2023-05-11T03:18:24.480Z,20.04
2023-05-11T03:20:54.456Z,20.01
2023-05-11T03:23:23.482Z,19.98
2023-05-11T03:25:52.518Z,19.94
2023-05-11T03:28:23.746Z,19.92
2023-05-11T03:30:54.814Z,19.90
2023-05-11T03:33:23.356Z,19.90
2023-05-11T03:35:55.194Z,19.88
2023-05-11T03:38:25.301Z,19.87
2023-05-11T03:40:55.917Z,19.85
2023-05-11T03:43:26.534Z,19.85
2023-05-11T03:45:57.446Z,19.84
2023-05-11T03:48:25.993Z,19.86
2023-05-11T03:50:56.424Z,19.85
2023-05-11T03:53:25.681Z,19.88
2023-05-11T03:55:54.892Z,19.89
2023-05-11T03:58:24.136Z,19.93
2023-05-11T04:00:52.603Z,19.94
2023-05-11T04:03:21.209Z,19.96
2023-05-11T04:05:49.683Z,19.97
2023-05-11T04:08:19.370Z,19.98
2023-05-11T04:10:47.640Z,20.00
2023-05-11T04:13:16.023Z,20.02
2023-05-11T04:15:44.433Z,20.03
2023-05-11T04:18:12.982Z,20.05
2023-05-11T04:20:41.331Z,20.08
2023-05-11T04:23:10.514Z,20.10
2023-05-11T04:25:40.561Z,20.11
2023-05-11T04:28:09.054Z,20.13
2023-05-11T04:30:37.469Z,20.16
2023-05-11T04:33:06.305Z,20.20
2023-05-11T04:35:34.611Z,20.21
2023-05-11T04:38:02.971Z,20.22
2023-05-11T04:40:32.371Z,20.24
2023-05-11T04:43:03.611Z,20.24
2023-05-11T04:45:31.998Z,20.25
2023-05-11T04:48:00.452Z,20.27
2023-05-11T04:50:28.978Z,20.28
2023-05-11T04:52:57.357Z,20.33
2023-05-11T04:55:26.789Z,20.37
2023-05-11T04:57:55.184Z,20.43
2023-05-11T05:00:25.277Z,20.47
2023-05-11T05:02:53.759Z,20.53
2023-05-11T05:05:22.614Z,20.57
2023-05-11T05:07:51.009Z,20.63
2023-05-11T05:10:19.633Z,20.69
2023-05-11T05:12:48.122Z,20.75
2023-05-11T05:15:16.476Z,20.82
2023-05-11T05:17:46.169Z,20.89
2023-05-11T05:20:14.740Z,20.95
2023-05-11T05:22:43.045Z,21.01
2023-05-11T05:25:12.192Z,21.08
2023-05-11T05:27:40.515Z,21.12
2023-05-11T05:30:10.157Z,21.15
2023-05-11T05:32:38.598Z,21.22
2023-05-11T05:35:10.086Z,21.30
2023-05-11T05:37:38.545Z,21.37
2023-05-11T05:40:09.055Z,21.44
2023-05-11T05:42:37.476Z,21.47
2023-05-11T05:45:07.288Z,21.53
2023-05-11T05:47:35.572Z,21.58
2023-05-11T05:50:04.141Z,21.64
2023-05-11T05:52:33.862Z,21.73
2023-05-11T05:55:02.202Z,21.78
2023-05-11T05:57:31.156Z,21.84
2023-05-11T05:59:59.540Z,21.89
2023-05-11T06:02:28.056Z,21.99
2023-05-11T06:04:56.575Z,22.09
2023-05-11T06:07:25.152Z,22.16
2023-05-11T06:09:54.907Z,22.20
2023-05-11T06:12:23.271Z,22.24
2023-05-11T06:14:51.768Z,22.28
2023-05-11T06:17:20.103Z,22.36
2023-05-11T06:19:48.423Z,22.43
2023-05-11T06:22:16.833Z,22.48
2023-05-11T06:24:45.192Z,22.52
2023-05-11T06:27:17.392Z,22.55
2023-05-11T06:29:47.007Z,22.59
2023-05-11T06:32:15.781Z,22.63
2023-05-11T06:34:44.182Z,22.66
2023-05-11T06:37:16.193Z,22.69
2023-05-11T06:39:44.528Z,22.70
2023-05-11T06:42:14.311Z,22.74
2023-05-11T06:44:42.799Z,22.83
2023-05-11T06:47:11.307Z,22.90
2023-05-11T06:49:39.634Z,22.91
2023-05-11T06:52:08.844Z,22.91
2023-05-11T06:54:37.275Z,22.91
2023-05-11T06:57:05.766Z,22.95
2023-05-11T06:59:35.571Z,22.98
2023-05-11T07:02:03.927Z,23.02
2023-05-11T07:04:32.369Z,23.09
2023-05-11T07:07:00.886Z,23.22
2023-05-11T07:09:29.448Z,23.30
2023-05-11T07:11:58.221Z,23.32
2023-05-11T07:14:26.655Z,23.32
2023-05-11T07:16:56.503Z,23.39
2023-05-11T07:19:24.950Z,23.49
2023-05-11T07:21:53.593Z,23.67
2023-05-11T07:24:22.014Z,23.83
2023-05-11T07:26:51.056Z,23.93
2023-05-11T07:29:19.501Z,23.97
2023-05-11T07:31:48.416Z,24.00
2023-05-11T07:34:18.427Z,24.02
2023-05-11T07:36:47.060Z,24.06
2023-05-11T07:39:17.061Z,24.13
2023-05-11T07:41:45.575Z,24.22
2023-05-11T07:44:14.051Z,24.31
2023-05-11T07:46:42.725Z,24.39
2023-05-11T07:49:17.165Z,24.47
2023-05-11T07:51:48.628Z,24.50
2023-05-11T07:54:17.807Z,24.52
2023-05-11T07:56:47.782Z,24.54
2023-05-11T07:59:16.192Z,24.60
2023-05-11T08:01:44.643Z,24.63
2023-05-11T08:04:13.113Z,24.64
2023-05-11T08:06:41.540Z,24.68
2023-05-11T08:09:11.410Z,24.72
2023-05-11T08:11:39.896Z,24.76
2023-05-11T08:14:08.501Z,24.86
2023-05-11T08:16:37.581Z,24.94
2023-05-11T08:19:06.366Z,25.00
2023-05-11T08:21:34.859Z,25.05
2023-05-11T08:24:03.325Z,25.09
2023-05-11T08:26:33.517Z,25.18
2023-05-11T08:29:01.968Z,25.27
2023-05-11T08:31:30.410Z,25.35
2023-05-11T08:33:59.211Z,25.51
2023-05-11T08:36:27.765Z,25.57
2023-05-11T08:38:58.946Z,25.63
2023-05-11T08:41:28.035Z,25.68
2023-05-11T08:44:00.925Z,25.78
2023-05-11T08:46:36.286Z,25.95
2023-05-11T08:49:05.022Z,26.08
2023-05-11T08:51:34.141Z,26.14
2023-05-11T08:54:02.800Z,26.16
2023-05-11T08:56:31.923Z,26.13
2023-05-11T08:59:05.032Z,26.07
2023-05-11T09:01:35.857Z,26.08
2023-05-11T09:04:05.551Z,26.14
2023-05-11T09:06:35.141Z,26.20
2023-05-11T09:09:03.795Z,26.28
2023-05-11T09:11:32.946Z,26.36
2023-05-11T09:14:03.422Z,26.48
2023-05-11T09:16:37.352Z,26.58
2023-05-11T09:19:06.636Z,26.57
2023-05-11T09:21:35.363Z,26.58
2023-05-11T09:24:04.766Z,26.59
2023-05-11T09:26:35.459Z,26.64
2023-05-11T09:29:05.869Z,26.69
2023-05-11T09:31:40.200Z,26.76
2023-05-11T09:34:16.462Z,26.84
2023-05-11T09:36:46.036Z,26.89
2023-05-11T09:39:16.118Z,26.91
2023-05-11T09:41:45.494Z,26.93
2023-05-11T09:44:16.806Z,26.91
2023-05-11T09:46:47.569Z,26.94
2023-05-11T09:49:16.112Z,27.02
2023-05-11T09:51:44.677Z,27.13
2023-05-11T09:54:22.241Z,27.17
2023-05-11T09:56:54.364Z,27.17
2023-05-11T09:59:39.925Z,27.10
2023-05-11T10:02:23.761Z,27.19
2023-05-11T10:04:53.654Z,27.25
2023-05-11T10:07:30.090Z,27.23
2023-05-11T10:10:00.416Z,27.28
2023-05-11T10:12:30.602Z,27.36
2023-05-11T10:15:04.366Z,27.45
2023-05-11T10:17:33.475Z,27.53
2023-05-11T10:20:04.242Z,27.53
2023-05-11T10:22:33.633Z,27.57
2023-05-11T10:25:02.704Z,27.56
2023-05-11T10:27:32.867Z,27.59
2023-05-11T10:30:03.991Z,27.68
2023-05-11T10:32:37.399Z,27.76
2023-05-11T10:35:07.919Z,27.87
2023-05-11T10:37:36.856Z,28.05
2023-05-11T10:40:07.349Z,28.14
2023-05-11T10:43:23.141Z,28.16
2023-05-11T10:46:00.452Z,28.31
2023-05-11T10:48:54.104Z,28.60
2023-05-11T10:51:57.429Z,28.93
2023-05-11T10:54:50.486Z,29.05
2023-05-11T10:57:39.291Z,29.06
2023-05-11T11:00:57.866Z,28.91
2023-05-11T11:03:28.156Z,28.97
2023-05-11T11:05:57.581Z,29.00
2023-05-11T11:08:28.609Z,28.95
2023-05-11T11:10:57.503Z,28.84
2023-05-11T11:13:25.975Z,28.78
2023-05-11T11:16:16.629Z,28.66
2023-05-11T11:18:47.628Z,28.59
2023-05-11T11:21:43.206Z,28.40
2023-05-11T11:24:45.380Z,28.24
2023-05-11T11:27:14.233Z,28.31
2023-05-11T11:29:42.860Z,28.49
2023-05-11T11:32:27.503Z,28.79
2023-05-11T11:34:57.385Z,29.12
2023-05-11T11:37:26.029Z,29.42
2023-05-11T11:40:08.895Z,29.60
2023-05-11T11:42:44.245Z,29.73
2023-05-11T11:45:31.162Z,29.80
2023-05-11T11:48:17.176Z,29.82
2023-05-11T11:50:49.545Z,29.94
2023-05-11T11:54:01.074Z,30.27
2023-05-11T11:56:41.045Z,30.49
2023-05-11T11:59:13.909Z,30.61
2023-05-11T12:01:45.480Z,30.64
2023-05-11T12:04:42.036Z,30.82
2023-05-11T12:07:12.052Z,31.34
2023-05-11T12:09:42.246Z,31.84
2023-05-11T12:12:12.017Z,32.29
2023-05-11T12:14:44.769Z,32.45
2023-05-11T12:17:16.488Z,32.40
2023-05-11T12:19:45.819Z,32.28
2023-05-11T12:22:16.495Z,32.11
2023-05-11T12:24:45.212Z,31.88
2023-05-11T12:27:14.292Z,31.75
2023-05-11T12:29:45.995Z,31.64
2023-05-11T12:32:15.164Z,31.58
2023-05-11T12:34:43.735Z,31.38
2023-05-11T12:37:12.543Z,31.07
2023-05-11T12:39:42.483Z,30.74
2023-05-11T12:42:19.691Z,30.48
2023-05-11T12:44:48.592Z,30.27
2023-05-11T12:47:17.760Z,30.25
2023-05-11T12:49:46.823Z,30.65
2023-05-11T12:52:15.545Z,31.13
2023-05-11T12:54:52.375Z,31.51
2023-05-11T12:57:29.290Z,31.72
2023-05-11T13:00:13.173Z,31.63
2023-05-11T13:02:52.200Z,31.46
2023-05-11T13:05:25.825Z,31.33
2023-05-11T13:08:00.156Z,31.37
2023-05-11T13:10:30.592Z,31.46
2023-05-11T13:12:59.409Z,31.56
2023-05-11T13:15:28.689Z,31.63
2023-05-11T13:17:59.131Z,31.67
2023-05-11T13:20:29.669Z,31.86
2023-05-11T13:23:06.820Z,32.35
2023-05-11T13:25:53.327Z,32.54
2023-05-11T13:28:25.263Z,32.40
2023-05-11T13:31:00.423Z,32.23
2023-05-11T13:33:29.116Z,32.05
2023-05-11T13:35:57.524Z,32.07
2023-05-11T13:38:25.908Z,32.20
2023-05-11T13:40:55.713Z,32.36
2023-05-11T13:43:24.115Z,32.67
2023-05-11T13:45:52.645Z,33.12
2023-05-11T13:48:21.139Z,33.57
2023-05-11T13:50:49.486Z,33.89
2023-05-11T13:53:17.997Z,34.20
2023-05-11T13:55:46.401Z,34.07
2023-05-11T13:58:17.509Z,33.86
2023-05-11T14:00:56.438Z,33.92
2023-05-11T14:03:33.461Z,33.84
2023-05-11T14:06:02.082Z,33.48
2023-05-11T14:08:30.395Z,33.02
2023-05-11T14:10:58.697Z,32.56
2023-05-11T14:13:28.476Z,32.19
2023-05-11T14:15:57.850Z,31.86
2023-05-11T14:18:26.638Z,31.60
2023-05-11T14:20:55.489Z,31.46
2023-05-11T14:23:23.935Z,31.24
2023-05-11T14:25:52.288Z,31.01
2023-05-11T14:28:20.985Z,30.75
2023-05-11T14:30:50.894Z,30.44
2023-05-11T14:33:19.304Z,30.21
2023-05-11T14:35:50.128Z,30.03
2023-05-11T14:38:18.649Z,30.03
2023-05-11T14:40:47.439Z,30.01
2023-05-11T14:43:16.085Z,29.90
2023-05-11T14:45:46.172Z,29.78
2023-05-11T14:48:15.857Z,29.65
2023-05-11T14:50:44.212Z,29.54
2023-05-11T14:53:13.918Z,29.48
2023-05-11T14:55:42.423Z,29.37
2023-05-11T14:58:11.153Z,29.20
2023-05-11T15:00:40.488Z,29.03
2023-05-11T15:03:10.766Z,28.88
2023-05-11T15:05:41.502Z,28.79
2023-05-11T15:08:21.729Z,28.73
2023-05-11T15:10:54.408Z,28.65
2023-05-11T15:13:23.364Z,28.57
2023-05-11T15:15:52.159Z,28.53
2023-05-11T15:18:20.804Z,28.56
2023-05-11T15:20:50.623Z,28.65
2023-05-11T15:23:19.028Z,28.85
2023-05-11T15:25:48.557Z,29.10
2023-05-11T15:28:17.346Z,29.29
2023-05-11T15:30:45.678Z,29.35
2023-05-11T15:33:14.093Z,29.33
2023-05-11T15:35:42.563Z,29.27
2023-05-11T15:38:12.291Z,29.24
2023-05-11T15:40:40.710Z,29.16
2023-05-11T15:43:09.435Z,29.03
2023-05-11T15:45:37.912Z,28.87
2023-05-11T15:48:07.545Z,28.71
2023-05-11T15:50:36.143Z,28.51
2023-05-11T15:53:04.543Z,28.34
2023-05-11T15:55:34.504Z,28.18
2023-05-11T15:58:02.910Z,28.02
2023-05-11T16:00:31.443Z,27.88
2023-05-11T16:02:59.874Z,27.75
2023-05-11T16:05:29.795Z,27.63
2023-05-11T16:07:58.178Z,27.49
2023-05-11T16:10:26.648Z,27.36
2023-05-11T16:12:58.254Z,27.24
2023-05-11T16:15:27.459Z,27.11
2023-05-11T16:17:55.805Z,27.03
2023-05-11T16:20:24.420Z,26.93
2023-05-11T16:22:52.814Z,26.83
2023-05-11T16:25:21.256Z,26.72
2023-05-11T16:27:49.656Z,26.64
2023-05-11T16:30:24.823Z,26.56
2023-05-11T16:32:54.513Z,26.49
2023-05-11T16:35:23.177Z,26.40
2023-05-11T16:37:51.620Z,26.30
2023-05-11T16:40:21.500Z,26.21
2023-05-11T16:42:50.107Z,26.13
2023-05-11T16:45:20.035Z,26.04
2023-05-11T16:47:49.341Z,25.99
2023-05-11T16:50:18.896Z,25.94
2023-05-11T16:52:48.776Z,25.87
2023-05-11T16:55:17.555Z,25.78
2023-05-11T16:57:46.037Z,25.71
2023-05-11T17:00:16.253Z,25.62
2023-05-11T17:02:46.327Z,25.55
2023-05-11T17:05:18.041Z,25.50
2023-05-11T17:07:46.834Z,25.45
2023-05-11T17:10:15.413Z,25.39
2023-05-11T17:12:43.835Z,25.35
2023-05-11T17:15:12.673Z,25.28
2023-05-11T17:17:41.288Z,25.23
2023-05-11T17:20:12.860Z,25.18
2023-05-11T17:22:41.226Z,25.14
2023-05-11T17:25:10.838Z,25.12
2023-05-11T17:27:39.284Z,25.09
2023-05-11T17:30:09.770Z,25.06
2023-05-11T17:32:38.205Z,25.04
2023-05-11T17:35:08.210Z,24.99
2023-05-11T17:37:37.942Z,24.96
2023-05-11T17:40:09.440Z,24.93
2023-05-11T17:42:38.810Z,24.91
2023-05-11T17:45:11.977Z,24.87
2023-05-11T17:47:40.490Z,24.85
2023-05-11T17:50:10.269Z,24.82
2023-05-11T17:52:39.954Z,24.80
2023-05-11T17:55:10.933Z,24.77
2023-05-11T17:57:39.570Z,24.75
2023-05-11T18:00:10.950Z,24.71
2023-05-11T18:02:39.632Z,24.69
2023-05-11T18:05:09.168Z,24.66
2023-05-11T18:07:38.942Z,24.65
2023-05-11T18:10:09.296Z,24.62
2023-05-11T18:12:37.640Z,24.58
2023-05-11T18:15:07.292Z,24.54
2023-05-11T18:17:35.662Z,24.42
2023-05-11T18:20:05.311Z,24.27
2023-05-11T18:22:34.435Z,24.08
2023-05-11T18:25:04.360Z,23.88
2023-05-11T18:27:32.738Z,23.69
2023-05-11T18:30:01.924Z,23.52
2023-05-11T18:32:30.301Z,23.38
2023-05-11T18:34:58.886Z,23.21
2023-05-11T18:37:27.185Z,23.03
2023-05-11T18:39:56.864Z,22.89
2023-05-11T18:42:26.911Z,22.74
2023-05-11T18:44:56.918Z,22.56
2023-05-11T18:47:25.726Z,22.45
2023-05-11T18:49:55.426Z,22.31
2023-05-11T18:52:24.035Z,22.19
2023-05-11T18:54:52.465Z,22.07
2023-05-11T18:57:21.341Z,21.93
2023-05-11T18:59:52.586Z,21.80
2023-05-11T19:02:20.966Z,21.72
2023-05-11T19:04:49.867Z,21.59
2023-05-11T19:07:20.271Z,21.51
2023-05-11T19:09:48.891Z,21.42
2023-05-11T19:12:19.812Z,21.36
2023-05-11T19:14:48.321Z,21.28
2023-05-11T19:17:18.873Z,21.21
2023-05-11T19:19:47.331Z,21.12
2023-05-11T19:22:17.112Z,21.04
2023-05-11T19:24:45.917Z,21.00
2023-05-11T19:27:16.009Z,20.95
2023-05-11T19:29:45.265Z,20.90
2023-05-11T19:32:15.113Z,20.86
2023-05-11T19:34:46.067Z,20.82
2023-05-11T19:37:15.090Z,20.80
2023-05-11T19:39:44.488Z,20.75
2023-05-11T19:42:13.827Z,20.72
2023-05-11T19:44:43.671Z,20.67
2023-05-11T19:47:12.720Z,20.60
2023-05-11T19:49:41.943Z,20.53
2023-05-11T19:52:11.845Z,20.45
2023-05-11T19:54:40.322Z,20.36
2023-05-11T19:57:08.696Z,20.27
2023-05-11T19:59:37.406Z,20.21
2023-05-11T20:02:06.366Z,20.18
2023-05-11T20:04:35.411Z,20.14
2023-05-11T20:07:03.950Z,20.12
2023-05-11T20:09:33.667Z,20.07
2023-05-11T20:12:02.091Z,20.03
2023-05-11T20:14:30.652Z,19.98
2023-05-11T20:16:58.996Z,19.94
2023-05-11T20:19:27.448Z,19.90
2023-05-11T20:21:55.732Z,19.84
2023-05-11T20:24:24.144Z,19.76
2023-05-11T20:26:53.941Z,19.67
2023-05-11T20:29:22.390Z,19.59
2023-05-11T20:31:50.974Z,19.51
2023-05-11T20:34:19.401Z,19.45
2023-05-11T20:36:48.824Z,19.41
2023-05-11T20:39:17.391Z,19.32
2023-05-11T20:41:45.782Z,19.24
2023-05-11T20:44:15.548Z,19.17
2023-05-11T20:46:44.420Z,19.12
2023-05-11T20:49:22.291Z,19.09
2023-05-11T20:51:56.138Z,19.06
2023-05-11T20:54:24.874Z,19.06
2023-05-11T20:56:53.238Z,19.05
2023-05-11T21:01:54.770Z,19.04
2023-05-11T21:04:23.078Z,19.05
2023-05-11T21:06:56.415Z,19.04
2023-05-11T21:09:25.292Z,19.05
2023-05-11T21:11:53.685Z,19.05
2023-05-11T21:14:23.424Z,19.08
2023-05-11T21:16:51.796Z,19.12
2023-05-11T21:19:20.216Z,19.16
2023-05-11T21:21:49.736Z,19.19
2023-05-11T21:24:18.276Z,19.24
2023-05-11T21:26:48.123Z,19.26
2023-05-11T21:29:16.654Z,19.31
2023-05-11T21:31:46.454Z,19.32
2023-05-11T21:34:14.973Z,19.33
2023-05-11T21:36:45.566Z,19.33
2023-05-11T21:39:14.221Z,19.33
2023-05-11T21:41:42.538Z,19.35
2023-05-11T21:44:10.908Z,19.36
2023-05-11T21:46:39.453Z,19.35
2023-05-11T21:49:09.234Z,19.35
2023-05-11T21:51:37.594Z,19.36
2023-05-11T21:54:06.365Z,19.36
2023-05-11T21:56:34.724Z,19.37
2023-05-11T21:59:03.099Z,19.35
2023-05-11T22:01:31.511Z,19.36
2023-05-11T22:04:01.153Z,19.36
2023-05-11T22:06:30.948Z,19.35
2023-05-11T22:08:59.320Z,19.34
2023-05-11T22:11:27.904Z,19.33
2023-05-11T22:13:56.237Z,19.31
2023-05-11T22:16:24.627Z,19.28
2023-05-11T22:18:53.027Z,19.26
2023-05-11T22:21:21.402Z,19.25
2023-05-11T22:23:51.227Z,19.23
2023-05-11T22:26:19.616Z,19.22
2023-05-11T22:28:48.183Z,19.22
2023-05-11T22:31:16.659Z,19.22
2023-05-11T22:33:45.115Z,19.21
2023-05-11T22:36:13.823Z,19.19
2023-05-11T22:38:42.215Z,19.21
2023-05-11T22:41:11.940Z,19.22
2023-05-11T22:43:40.350Z,19.23
2023-05-11T22:46:09.177Z,19.25
2023-05-11T22:48:37.590Z,19.26
2023-05-11T22:51:07.756Z,19.26
2023-05-11T22:53:36.133Z,19.26
2023-05-11T22:56:05.669Z,19.24
2023-05-11T22:58:35.501Z,19.23
2023-05-11T23:01:03.974Z,19.23
2023-05-11T23:03:32.387Z,19.25
2023-05-11T23:06:00.741Z,19.25
2023-05-11T23:08:29.001Z,19.25
2023-05-11T23:10:57.339Z,19.25
2023-05-11T23:13:26.437Z,19.25
2023-05-11T23:15:56.056Z,19.25
2023-05-11T23:18:24.609Z,19.25
2023-05-11T23:20:57.533Z,19.22
2023-05-11T23:23:26.329Z,19.23
2023-05-11T23:25:54.848Z,19.23
2023-05-11T23:28:23.260Z,19.22
2023-05-11T23:30:51.632Z,19.22
2023-05-11T23:33:21.379Z,19.22
2023-05-11T23:35:49.737Z,19.23
2023-05-11T23:38:18.222Z,19.22
2023-05-11T23:40:46.566Z,19.21
2023-05-11T23:43:14.914Z,19.19
2023-05-11T23:45:43.278Z,19.19
2023-05-11T23:48:11.836Z,19.19
2023-05-11T23:50:41.555Z,19.20
2023-05-11T23:53:09.864Z,19.19
2023-05-11T23:55:38.682Z,19.20
2023-05-11T23:58:06.978Z,19.22
